Time;durP1;ratioP1;P1;durP2;ratioP2;P2;SDS_P1;SDS_P2;PMS_P1;PMS_P2;Temp;Humidity;BMP_temperature;BMP_pressure;BME280_temperature;BME280_humidity;BME280_pressure;Samples;Min_cycle;Max_cycle;Signal;HPM_P1;HPM_P2
2021/10/28 00:13:53;;;;;;;25.83;11.93;;;;;;;;;;5029393;28;20160;-65
2021/10/28 00:16:24;;;;;;;21.90;11.48;;;;;;;;;;5029911;28;20045;-65
2021/10/28 00:19:00;;;;;;;25.73;11.95;;;;;;;;;;5030680;28;20041;-64
2021/10/28 00:21:30;;;;;;;19.90;10.50;;;;;;;;;;5031085;28;20124;-67
2021/10/28 00:24:01;;;;;;;23.38;11.10;;;;;;;;;;5030158;28;20053;-64
2021/10/28 00:26:29;;;;;;;21.75;10.88;;;;;;;;;;5030110;28;20073;-70
2021/10/28 00:29:01;;;;;;;21.58;11.32;;;;;;;;;;5030413;28;20107;-67
2021/10/28 00:31:30;;;;;;;27.67;12.30;;;;;;;;;;5030009;28;20049;-64
2021/10/28 00:34:00;;;;;;;22.60;10.27;;;;;;;;;;5029653;28;20045;-65
2021/10/28 00:36:29;;;;;;;21.00;10.90;;;;;;;;;;5030303;28;20057;-65
2021/10/28 00:38:58;;;;;;;19.38;10.05;;;;;;;;;;5026419;28;20079;-65
2021/10/28 00:41:26;;;;;;;21.67;11.20;;;;;;;;;;5030133;28;20053;-68
2021/10/28 00:43:55;;;;;;;20.13;10.38;;;;;;;;;;5025746;28;20055;-66
2021/10/28 00:46:24;;;;;;;24.33;11.13;;;;;;;;;;5022890;28;20054;-66
2021/10/28 00:48:53;;;;;;;23.83;11.57;;;;;;;;;;5029119;28;20501;-64
2021/10/28 00:51:23;;;;;;;22.05;10.93;;;;;;;;;;5029779;28;20136;-65
2021/10/28 00:53:52;;;;;;;20.85;10.57;;;;;;;;;;5028934;28;20080;-67
2021/10/28 00:56:22;;;;;;;20.88;10.20;;;;;;;;;;5029406;28;20124;-64
2021/10/28 00:58:50;;;;;;;20.60;10.15;;;;;;;;;;5029892;28;20133;-65
2021/10/28 01:01:19;;;;;;;19.15;10.68;;;;;;;;;;5028639;28;20132;-68
2021/10/28 01:03:47;;;;;;;21.92;10.70;;;;;;;;;;5029683;28;20041;-64
2021/10/28 01:06:16;;;;;;;20.00;10.30;;;;;;;;;;5028932;28;20047;-65
2021/10/28 01:08:46;;;;;;;20.13;10.32;;;;;;;;;;5029803;28;20509;-64
2021/10/28 01:11:15;;;;;;;18.40;9.50;;;;;;;;;;5028543;28;20053;-65
2021/10/28 01:13:44;;;;;;;19.23;9.40;;;;;;;;;;5029540;28;20104;-65
2021/10/28 01:16:12;;;;;;;18.17;9.52;;;;;;;;;;5028139;28;20899;-68
2021/10/28 01:18:41;;;;;;;19.35;9.93;;;;;;;;;;5024503;28;20370;-65
2021/10/28 01:21:10;;;;;;;18.30;9.43;;;;;;;;;;5028530;28;20544;-64
2021/10/28 01:23:41;;;;;;;15.65;9.13;;;;;;;;;;5029628;28;20073;-64
2021/10/28 01:26:10;;;;;;;19.45;9.98;;;;;;;;;;5028653;28;20133;-64
2021/10/28 01:28:40;;;;;;;17.70;9.27;;;;;;;;;;5030307;28;20061;-64
2021/10/28 01:31:09;;;;;;;18.35;9.88;;;;;;;;;;5035356;28;20053;-66
2021/10/28 01:33:40;;;;;;;18.40;9.82;;;;;;;;;;5029031;28;20076;-64
2021/10/28 01:36:10;;;;;;;17.65;9.32;;;;;;;;;;5029248;28;20152;-67
2021/10/28 01:38:38;;;;;;;19.65;9.52;;;;;;;;;;5029916;28;20532;-64
2021/10/28 01:41:07;;;;;;;17.50;8.77;;;;;;;;;;5028663;28;20446;-64
2021/10/28 01:43:35;;;;;;;21.85;10.35;;;;;;;;;;5028939;28;20041;-64
2021/10/28 01:46:05;;;;;;;20.58;10.15;;;;;;;;;;5028447;28;20045;-66
2021/10/28 01:48:37;;;;;;;20.50;9.45;;;;;;;;;;5028147;28;20401;-64
2021/10/28 01:51:06;;;;;;;18.13;9.25;;;;;;;;;;5025252;28;20081;-64
2021/10/28 01:53:38;;;;;;;19.00;9.30;;;;;;;;;;5031509;28;20465;-64
2021/10/28 01:56:06;;;;;;;16.88;9.32;;;;;;;;;;5028476;28;20497;-66
2021/10/28 01:58:34;;;;;;;17.95;9.77;;;;;;;;;;5029561;28;20160;-65
2021/10/28 02:01:04;;;;;;;19.02;9.35;;;;;;;;;;5028921;28;20137;-67
2021/10/28 02:03:32;;;;;;;21.38;10.75;;;;;;;;;;5032623;28;20133;-65
2021/10/28 02:06:01;;;;;;;19.30;9.75;;;;;;;;;;5029078;28;20060;-65
2021/10/28 02:08:29;;;;;;;22.50;9.02;;;;;;;;;;5028876;28;20139;-64
2021/10/28 02:10:59;;;;;;;20.38;9.18;;;;;;;;;;5028284;28;20092;-64
2021/10/28 02:13:27;;;;;;;20.23;9.75;;;;;;;;;;5026727;28;20233;-64
2021/10/28 02:15:55;;;;;;;18.40;9.38;;;;;;;;;;5028672;28;20472;-64
2021/10/28 02:18:24;;;;;;;19.98;9.27;;;;;;;;;;5027495;28;20132;-65
2021/10/28 02:20:53;;;;;;;19.02;9.48;;;;;;;;;;5029276;28;20048;-65
2021/10/28 02:23:21;;;;;;;22.13;10.23;;;;;;;;;;5028003;28;20068;-64
2021/10/28 02:25:49;;;;;;;18.33;8.90;;;;;;;;;;5028700;28;20053;-65
2021/10/28 02:28:19;;;;;;;19.88;9.45;;;;;;;;;;5029320;28;20048;-69
2021/10/28 02:30:47;;;;;;;16.60;8.27;;;;;;;;;;5027012;28;20060;-67
2021/10/28 02:33:16;;;;;;;15.88;8.65;;;;;;;;;;5028770;28;20081;-64
2021/10/28 02:35:44;;;;;;;16.17;8.75;;;;;;;;;;5029082;28;20052;-66
2021/10/28 02:38:12;;;;;;;19.63;9.52;;;;;;;;;;5032764;28;20046;-64
2021/10/28 02:40:41;;;;;;;19.08;9.45;;;;;;;;;;5031233;28;20503;-64
2021/10/28 02:43:09;;;;;;;15.93;8.68;;;;;;;;;;5031656;28;20648;-64
2021/10/28 02:45:40;;;;;;;16.27;9.00;;;;;;;;;;5031348;28;20080;-68
2021/10/28 02:48:08;;;;;;;18.17;9.43;;;;;;;;;;5032069;28;20460;-64
2021/10/28 02:50:36;;;;;;;14.93;8.85;;;;;;;;;;5031298;28;20048;-68
2021/10/28 02:53:05;;;;;;;19.33;9.88;;;;;;;;;;5031973;28;20136;-66
2021/10/28 02:55:33;;;;;;;17.35;8.80;;;;;;;;;;5031878;28;20465;-65
2021/10/28 02:58:01;;;;;;;21.25;10.00;;;;;;;;;;5031832;28;20061;-65
2021/10/28 03:00:29;;;;;;;18.77;9.40;;;;;;;;;;5028449;28;20491;-64
2021/10/28 03:02:59;;;;;;;17.67;9.00;;;;;;;;;;5029569;28;20128;-65
2021/10/28 03:05:28;;;;;;;21.15;9.60;;;;;;;;;;5032023;28;20103;-65
2021/10/28 03:07:57;;;;;;;15.40;8.45;;;;;;;;;;5031561;28;20136;-64
2021/10/28 03:10:25;;;;;;;19.67;10.05;;;;;;;;;;5031312;28;20063;-66
2021/10/28 03:12:55;;;;;;;15.23;8.43;;;;;;;;;;5031872;28;20141;-65
2021/10/28 03:15:26;;;;;;;18.27;9.45;;;;;;;;;;5032291;28;20095;-66
2021/10/28 03:18:19;;;;;;;15.85;9.30;;;;;;;;;;5029778;28;20046;-65
2021/10/28 03:26:21;;;;;;;18.30;9.00;;;;;;;;;;5029586;28;20511;-65
2021/10/28 03:28:49;;;;;;;16.90;8.77;;;;;;;;;;5030832;28;20137;-71
2021/10/28 03:31:17;;;;;;;19.13;9.38;;;;;;;;;;5031206;28;20561;-65
2021/10/28 03:33:48;;;;;;;17.55;8.75;;;;;;;;;;5031455;28;20107;-66
2021/10/28 03:36:26;;;;;;;20.77;9.13;;;;;;;;;;5030725;28;20481;-64
2021/10/28 03:39:07;;;;;;;19.38;9.57;;;;;;;;;;5031907;28;20045;-64
2021/10/28 03:41:55;;;;;;;18.92;9.00;;;;;;;;;;5031188;28;20076;-65
2021/10/28 03:47:50;;;;;;;19.80;9.57;;;;;;;;;;5030402;28;20129;-67
2021/10/28 03:50:49;;;;;;;19.45;8.95;;;;;;;;;;5026367;28;20370;-66
2021/10/28 04:02:03;;;;;;;22.38;9.57;;;;;;;;;;5028898;28;20084;-69
2021/10/28 04:07:49;;;;;;;16.63;8.63;;;;;;;;;;5028433;28;20096;-68
2021/10/28 04:19:02;;;;;;;21.67;9.68;;;;;;;;;;5028609;28;20049;-66
2021/10/28 04:29:49;;;;;;;24.30;10.40;;;;;;;;;;4995174;28;20142;-68
2021/10/28 04:32:17;;;;;;;23.67;10.27;;;;;;;;;;5031375;28;20072;-65
2021/10/28 04:34:45;;;;;;;22.40;10.88;;;;;;;;;;5034094;28;20564;-65
2021/10/28 04:37:14;;;;;;;26.42;11.13;;;;;;;;;;5027839;28;20427;-68
2021/10/28 04:39:43;;;;;;;24.70;10.75;;;;;;;;;;5031082;28;20045;-65
2021/10/28 04:42:12;;;;;;;20.52;10.80;;;;;;;;;;5016521;28;20140;-65
2021/10/28 04:44:41;;;;;;;22.23;10.45;;;;;;;;;;5026361;28;20200;-67
2021/10/28 04:47:10;;;;;;;24.85;10.75;;;;;;;;;;5028297;28;20089;-66
2021/10/28 04:49:38;;;;;;;27.33;11.35;;;;;;;;;;5029102;28;20048;-69
2021/10/28 04:52:07;;;;;;;25.50;10.15;;;;;;;;;;5028984;28;20049;-69
2021/10/28 04:54:36;;;;;;;25.27;11.45;;;;;;;;;;5030011;28;20068;-71
2021/10/28 04:57:05;;;;;;;26.27;10.90;;;;;;;;;;5026716;28;20119;-65
2021/10/28 04:59:34;;;;;;;22.45;10.77;;;;;;;;;;5027983;28;20124;-65
2021/10/28 05:02:06;;;;;;;22.95;10.38;;;;;;;;;;5024704;28;20167;-68
2021/10/28 05:04:34;;;;;;;23.55;11.00;;;;;;;;;;5026605;28;20132;-67
2021/10/28 05:07:02;;;;;;;27.20;11.65;;;;;;;;;;5021677;28;20516;-66
2021/10/28 05:09:32;;;;;;;26.05;11.88;;;;;;;;;;5027240;28;20053;-64
2021/10/28 05:12:01;;;;;;;26.27;11.45;;;;;;;;;;5016589;28;20438;-68
2021/10/28 05:14:29;;;;;;;28.17;11.82;;;;;;;;;;5024259;28;20337;-64
2021/10/28 05:16:58;;;;;;;27.80;11.68;;;;;;;;;;5026226;28;20076;-69
2021/10/28 05:19:29;;;;;;;25.58;11.00;;;;;;;;;;5027401;28;20065;-64
2021/10/28 05:21:57;;;;;;;21.98;10.13;;;;;;;;;;5029042;28;20164;-67
2021/10/28 05:24:25;;;;;;;26.00;11.07;;;;;;;;;;5031534;28;20133;-64
2021/10/28 05:26:55;;;;;;;24.67;10.73;;;;;;;;;;5027549;28;20077;-64
2021/10/28 05:29:23;;;;;;;28.10;11.85;;;;;;;;;;5027340;28;20137;-64
2021/10/28 05:31:52;;;;;;;24.02;11.05;;;;;;;;;;5027789;28;20536;-65
2021/10/28 05:34:22;;;;;;;23.15;10.82;;;;;;;;;;5024395;28;20129;-64
2021/10/28 05:36:51;;;;;;;19.90;9.18;;;;;;;;;;5027865;28;20408;-64
2021/10/28 05:39:19;;;;;;;21.92;10.25;;;;;;;;;;5028349;28;20418;-67
2021/10/28 05:41:47;;;;;;;20.92;9.57;;;;;;;;;;5029469;28;20132;-66
2021/10/28 05:44:16;;;;;;;21.15;9.20;;;;;;;;;;5027361;28;20143;-64
2021/10/28 05:46:44;;;;;;;21.13;9.93;;;;;;;;;;5027700;28;20041;-65
2021/10/28 05:49:13;;;;;;;20.70;10.25;;;;;;;;;;5027136;28;20050;-64
2021/10/28 05:51:43;;;;;;;22.75;9.88;;;;;;;;;;5029501;28;20080;-64
2021/10/28 05:54:12;;;;;;;18.63;9.77;;;;;;;;;;5027103;28;20073;-67
2021/10/28 05:56:40;;;;;;;20.80;8.88;;;;;;;;;;5028171;28;20124;-64
2021/10/28 05:59:08;;;;;;;21.83;9.07;;;;;;;;;;5024916;28;20144;-67
2021/10/28 06:01:37;;;;;;;19.70;10.02;;;;;;;;;;5036332;28;20037;-65
2021/10/28 06:04:06;;;;;;;21.20;10.38;;;;;;;;;;5027430;28;20045;-65
2021/10/28 06:06:35;;;;;;;22.63;9.98;;;;;;;;;;5025234;28;20092;-65
2021/10/28 06:09:05;;;;;;;25.27;9.90;;;;;;;;;;5021655;28;20107;-68
2021/10/28 06:11:33;;;;;;;25.73;9.63;;;;;;;;;;5026789;28;20136;-64
2021/10/28 06:14:02;;;;;;;20.23;9.55;;;;;;;;;;5028475;28;20422;-65
2021/10/28 06:16:33;;;;;;;25.08;9.93;;;;;;;;;;5023355;28;20051;-66
2021/10/28 06:19:02;;;;;;;21.35;9.05;;;;;;;;;;5028300;28;20049;-67
2021/10/28 06:21:30;;;;;;;21.00;9.55;;;;;;;;;;5028543;28;20092;-64
2021/10/28 06:23:59;;;;;;;22.52;9.35;;;;;;;;;;5027598;28;20476;-66
2021/10/28 06:26:29;;;;;;;21.73;9.23;;;;;;;;;;5028315;28;20164;-69
2021/10/28 06:28:57;;;;;;;24.95;10.45;;;;;;;;;;5024694;28;20077;-66
2021/10/28 06:31:26;;;;;;;21.15;9.30;;;;;;;;;;5028389;28;20128;-64
2021/10/28 06:34:00;;;;;;;25.23;9.98;;;;;;;;;;5026403;28;20069;-66
2021/10/28 06:36:30;;;;;;;25.92;10.70;;;;;;;;;;5028171;28;20123;-68
2021/10/28 06:38:58;;;;;;;27.17;10.88;;;;;;;;;;5028506;28;20085;-66
2021/10/28 06:41:27;;;;;;;23.67;10.30;;;;;;;;;;5026592;28;20060;-68
2021/10/28 06:43:59;;;;;;;25.52;10.45;;;;;;;;;;5030329;28;20060;-65
2021/10/28 06:46:28;;;;;;;26.48;10.55;;;;;;;;;;5025202;28;20132;-69
2021/10/28 06:48:57;;;;;;;23.63;9.73;;;;;;;;;;5027557;28;20049;-68
2021/10/28 06:51:25;;;;;;;26.85;10.05;;;;;;;;;;5027815;28;20099;-64
2021/10/28 06:54:01;;;;;;;26.52;10.55;;;;;;;;;;5028297;28;20099;-64
2021/10/28 06:56:52;;;;;;;25.13;9.98;;;;;;;;;;5029495;28;20076;-69
2021/10/28 07:02:30;;;;;;;27.35;11.48;;;;;;;;;;5026536;28;20100;-65
2021/10/28 07:04:59;;;;;;;23.70;10.00;;;;;;;;;;5023865;28;20140;-64
2021/10/28 07:07:29;;;;;;;23.67;10.52;;;;;;;;;;5025127;28;20084;-64
2021/10/28 07:10:02;;;;;;;25.17;10.63;;;;;;;;;;5026532;28;20071;-64
2021/10/28 07:12:41;;;;;;;30.02;11.55;;;;;;;;;;5026610;28;20085;-67
2021/10/28 07:15:17;;;;;;;23.30;10.68;;;;;;;;;;5015376;28;20057;-70
2021/10/28 07:18:00;;;;;;;27.38;10.57;;;;;;;;;;5018826;28;20111;-66
2021/10/28 07:23:31;;;;;;;30.63;12.18;;;;;;;;;;5014723;28;20052;-64
2021/10/28 07:32:21;;;;;;;28.35;10.90;;;;;;;;;;4964997;28;20050;-64
2021/10/28 08:17:12;;;;;;;27.20;11.35;;;;;;;;;;4964129;28;20111;-63
2021/10/28 08:19:46;;;;;;;30.77;12.88;;;;;;;;;;4963151;28;20430;-66
2021/10/28 08:22:19;;;;;;;33.30;12.95;;;;;;;;;;5005715;28;20568;-66
2021/10/28 08:30:26;;;;;;;32.15;12.70;;;;;;;;;;5023691;28;21576;-63
2021/10/28 08:32:56;;;;;;;26.90;11.48;;;;;;;;;;5027524;28;20144;-64
2021/10/28 08:35:40;;;;;;;29.77;12.60;;;;;;;;;;5020413;28;20045;-69
2021/10/28 08:38:10;;;;;;;27.33;11.80;;;;;;;;;;5026773;28;20049;-64
2021/10/28 08:40:39;;;;;;;28.45;11.57;;;;;;;;;;5026762;28;20046;-64
2021/10/28 08:43:08;;;;;;;29.70;12.43;;;;;;;;;;5026972;28;20091;-64
2021/10/28 08:45:37;;;;;;;32.20;12.57;;;;;;;;;;5027137;28;20505;-67
2021/10/28 08:48:08;;;;;;;31.77;13.18;;;;;;;;;;5026150;28;21631;-65
2021/10/28 08:50:41;;;;;;;31.17;12.48;;;;;;;;;;5006924;28;20050;-65
2021/10/28 08:53:26;;;;;;;32.50;12.45;;;;;;;;;;5009102;28;20124;-64
2021/10/28 08:55:56;;;;;;;30.02;12.18;;;;;;;;;;5026972;28;20046;-64
2021/10/28 09:26:49;;;;;;;35.13;13.32;;;;;;;;;;5021338;28;20087;-64
2021/10/28 09:29:24;;;;;;;27.95;12.25;;;;;;;;;;5025607;28;20092;-64
2021/10/28 09:32:04;;;;;;;27.90;12.35;;;;;;;;;;5031296;28;20280;-64
2021/10/28 09:34:42;;;;;;;32.75;12.05;;;;;;;;;;5024646;28;20045;-64
2021/10/28 09:43:37;;;;;;;29.08;12.93;;;;;;;;;;5021464;28;20054;-66
2021/10/28 09:46:35;;;;;;;26.08;12.23;;;;;;;;;;5030308;28;20087;-63
2021/10/28 09:51:56;;;;;;;29.20;12.63;;;;;;;;;;5031207;28;20397;-64
2021/10/28 09:54:32;;;;;;;29.85;12.88;;;;;;;;;;5028642;28;20049;-64
2021/10/28 09:59:52;;;;;;;23.73;11.45;;;;;;;;;;5032619;28;20069;-64
2021/10/28 10:02:25;;;;;;;25.27;12.47;;;;;;;;;;5030410;28;20555;-67
2021/10/28 10:04:55;;;;;;;23.35;11.10;;;;;;;;;;5030590;28;20383;-63
2021/10/28 10:07:24;;;;;;;29.95;11.70;;;;;;;;;;5029561;28;20088;-63
2021/10/28 10:09:52;;;;;;;28.50;12.88;;;;;;;;;;5031223;28;20061;-64
2021/10/28 10:12:20;;;;;;;28.33;12.70;;;;;;;;;;5024779;28;20126;-71
2021/10/28 10:14:51;;;;;;;26.27;11.40;;;;;;;;;;5029665;28;20085;-69
2021/10/28 10:17:20;;;;;;;26.50;12.18;;;;;;;;;;5026577;28;20053;-65
2021/10/28 10:19:51;;;;;;;27.15;12.80;;;;;;;;;;5031349;28;20053;-65
2021/10/28 10:22:31;;;;;;;32.22;13.20;;;;;;;;;;5030082;28;20064;-66
2021/10/28 10:25:20;;;;;;;29.75;13.00;;;;;;;;;;5020149;28;20072;-63
2021/10/28 11:04:06;;;;;;;30.15;12.90;;;;;;;;;;5027108;28;20053;-63
2021/10/28 12:24:09;;;;;;;26.15;12.70;;;;;;;;;;4973983;28;20528;-69
2021/10/28 12:44:02;;;;;;;21.77;10.38;;;;;;;;;;5027482;28;20060;-66
2021/10/28 12:46:43;;;;;;;25.77;11.45;;;;;;;;;;5029028;28;20049;-64
2021/10/28 12:55:24;;;;;;;24.52;10.75;;;;;;;;;;5006787;28;20148;-65
2021/10/28 13:48:31;;;;;;;19.70;10.38;;;;;;;;;;5027204;28;20050;-63
2021/10/28 13:51:23;;;;;;;20.25;10.38;;;;;;;;;;5027955;28;20389;-68
2021/10/28 13:54:16;;;;;;;20.50;10.55;;;;;;;;;;5025654;28;20050;-65
2021/10/28 13:57:02;;;;;;;22.20;11.02;;;;;;;;;;5026414;28;20045;-65
2021/10/28 14:27:41;;;;;;;17.10;8.48;;;;;;;;;;4928776;28;20535;-64
2021/10/28 14:30:41;;;;;;;22.60;10.50;;;;;;;;;;5024693;28;20049;-64
2021/10/28 14:58:50;;;;;;;15.93;7.97;;;;;;;;;;5027339;28;20135;-66
2021/10/28 15:01:46;;;;;;;19.17;9.45;;;;;;;;;;5025607;28;20088;-65
2021/10/28 15:29:18;;;;;;;18.40;9.45;;;;;;;;;;5023772;28;20064;-64
2021/10/28 15:34:43;;;;;;;19.83;9.35;;;;;;;;;;5043784;28;20073;-63
2021/10/28 15:37:16;;;;;;;19.17;10.18;;;;;;;;;;5024947;28;20053;-63
2021/10/28 15:39:56;;;;;;;18.35;9.32;;;;;;;;;;5029474;28;20045;-66
2021/10/28 15:42:55;;;;;;;17.25;8.80;;;;;;;;;;5011360;28;20468;-65
2021/10/28 15:53:59;;;;;;;18.25;9.38;;;;;;;;;;5018142;28;20050;-68
2021/10/28 15:56:50;;;;;;;21.15;10.05;;;;;;;;;;5028434;28;20578;-63
2021/10/28 16:21:52;;;;;;;20.42;8.95;;;;;;;;;;5016312;28;20981;-65
2021/10/28 16:24:21;;;;;;;17.08;8.70;;;;;;;;;;5013120;28;20057;-70
2021/10/28 16:26:50;;;;;;;18.70;9.77;;;;;;;;;;5025638;28;20049;-66
2021/10/28 16:29:18;;;;;;;17.75;9.07;;;;;;;;;;5025003;28;20164;-65
2021/10/28 16:31:49;;;;;;;20.95;9.77;;;;;;;;;;5024057;28;20084;-65
2021/10/28 16:34:18;;;;;;;18.33;9.35;;;;;;;;;;5024416;28;20077;-64
2021/10/28 16:36:48;;;;;;;22.50;9.45;;;;;;;;;;5025480;28;20343;-65
2021/10/28 16:39:17;;;;;;;18.88;9.40;;;;;;;;;;5023741;28;20060;-67
2021/10/28 16:41:46;;;;;;;18.48;9.02;;;;;;;;;;5024259;28;20770;-67
2021/10/28 16:44:16;;;;;;;17.23;8.32;;;;;;;;;;5019473;28;20447;-67
2021/10/28 16:46:44;;;;;;;18.67;9.70;;;;;;;;;;5022696;28;20114;-66
2021/10/28 16:49:15;;;;;;;24.63;11.50;;;;;;;;;;5014845;28;20052;-64
2021/10/28 16:51:44;;;;;;;20.13;9.10;;;;;;;;;;5022407;28;20517;-64
2021/10/28 16:54:13;;;;;;;19.02;9.02;;;;;;;;;;5020216;28;20566;-67
2021/10/28 16:56:42;;;;;;;16.98;9.30;;;;;;;;;;5021296;28;20616;-69
2021/10/28 16:59:10;;;;;;;21.15;9.43;;;;;;;;;;5022132;28;20124;-67
2021/10/28 17:01:39;;;;;;;21.15;9.50;;;;;;;;;;5022608;28;20053;-67
2021/10/28 17:04:07;;;;;;;23.23;9.68;;;;;;;;;;5022856;28;20054;-66
2021/10/28 17:06:37;;;;;;;21.90;10.38;;;;;;;;;;5020846;28;20073;-64
2021/10/28 17:09:08;;;;;;;22.30;9.70;;;;;;;;;;5023503;28;20465;-64
2021/10/28 17:11:36;;;;;;;19.55;9.30;;;;;;;;;;5020019;28;20053;-67
2021/10/28 17:14:05;;;;;;;20.30;9.70;;;;;;;;;;5023737;28;20092;-64
2021/10/28 17:16:34;;;;;;;16.88;9.32;;;;;;;;;;5023575;28;20172;-68
2021/10/28 17:19:02;;;;;;;18.58;8.73;;;;;;;;;;5021522;28;20428;-64
2021/10/28 17:21:31;;;;;;;23.23;10.20;;;;;;;;;;5021704;28;20045;-71
2021/10/28 17:24:03;;;;;;;18.10;8.68;;;;;;;;;;5018140;28;20123;-65
2021/10/28 17:26:32;;;;;;;18.98;9.52;;;;;;;;;;5022296;28;20081;-64
2021/10/28 17:29:02;;;;;;;19.73;10.57;;;;;;;;;;5024114;28;20146;-65
2021/10/28 17:31:32;;;;;;;21.65;10.23;;;;;;;;;;5020580;28;20397;-64
2021/10/28 17:34:01;;;;;;;21.67;10.20;;;;;;;;;;5023234;28;20067;-67
2021/10/28 17:36:29;;;;;;;24.00;10.93;;;;;;;;;;5023951;28;20497;-65
2021/10/28 17:38:58;;;;;;;20.45;9.68;;;;;;;;;;5024309;28;20153;-67
2021/10/28 17:41:27;;;;;;;23.65;10.20;;;;;;;;;;5022334;28;20069;-67
2021/10/28 17:43:57;;;;;;;20.05;9.52;;;;;;;;;;5018043;28;20493;-65
2021/10/28 17:46:26;;;;;;;22.17;10.50;;;;;;;;;;5020792;28;20073;-66
2021/10/28 17:48:55;;;;;;;21.73;9.70;;;;;;;;;;5023812;28;20100;-64
2021/10/28 17:51:24;;;;;;;21.80;10.07;;;;;;;;;;5017599;28;20132;-66
2021/10/28 17:53:56;;;;;;;21.65;10.25;;;;;;;;;;5019175;28;20062;-68
2021/10/28 17:56:24;;;;;;;20.98;10.43;;;;;;;;;;5018068;28;20057;-66
2021/10/28 17:58:54;;;;;;;18.88;10.07;;;;;;;;;;5017383;28;20057;-66
2021/10/28 18:01:25;;;;;;;18.08;9.45;;;;;;;;;;5018110;28;20148;-73
2021/10/28 18:03:58;;;;;;;19.00;8.82;;;;;;;;;;5012984;28;20056;-67
2021/10/28 18:06:26;;;;;;;19.52;9.23;;;;;;;;;;5022753;28;20077;-68
2021/10/28 18:08:55;;;;;;;19.58;9.55;;;;;;;;;;5021055;28;20080;-67
2021/10/28 18:11:24;;;;;;;19.85;10.32;;;;;;;;;;5022292;28;20067;-65
2021/10/28 18:13:56;;;;;;;21.45;10.55;;;;;;;;;;5025770;28;20061;-68
2021/10/28 18:16:27;;;;;;;23.40;10.85;;;;;;;;;;5020636;28;20053;-65
2021/10/28 18:18:56;;;;;;;17.83;9.73;;;;;;;;;;5023081;28;20049;-65
2021/10/28 18:21:25;;;;;;;22.17;10.68;;;;;;;;;;5027931;28;20171;-67
2021/10/28 18:23:56;;;;;;;23.88;10.48;;;;;;;;;;5019789;28;20053;-66
2021/10/28 18:26:26;;;;;;;19.67;10.65;;;;;;;;;;5016061;28;20057;-65
2021/10/28 18:28:55;;;;;;;18.38;9.25;;;;;;;;;;5020995;28;20053;-64
2021/10/28 18:31:24;;;;;;;21.95;10.07;;;;;;;;;;5025509;28;20484;-70
2021/10/28 18:33:54;;;;;;;19.85;9.60;;;;;;;;;;5025704;28;20460;-68
2021/10/28 18:36:23;;;;;;;20.27;10.50;;;;;;;;;;5025568;28;20049;-71
2021/10/28 18:38:52;;;;;;;21.98;9.93;;;;;;;;;;5022535;28;20045;-70
2021/10/28 18:41:22;;;;;;;21.38;10.48;;;;;;;;;;5020570;28;20119;-65
2021/10/28 18:43:51;;;;;;;21.42;9.98;;;;;;;;;;5024115;28;20056;-65
2021/10/28 18:46:22;;;;;;;24.25;10.35;;;;;;;;;;5023244;28;20140;-67
2021/10/28 18:48:51;;;;;;;18.80;9.52;;;;;;;;;;5025141;28;20060;-66
2021/10/28 18:51:22;;;;;;;22.00;10.05;;;;;;;;;;5020607;28;20511;-70
2021/10/28 18:53:51;;;;;;;20.63;9.13;;;;;;;;;;5015866;28;20060;-67
2021/10/28 18:56:20;;;;;;;19.70;9.48;;;;;;;;;;5024991;28;20504;-64
2021/10/28 18:58:49;;;;;;;21.00;9.70;;;;;;;;;;5026321;28;20085;-71
2021/10/28 19:01:19;;;;;;;19.80;8.98;;;;;;;;;;5026499;28;20053;-67
2021/10/28 19:03:51;;;;;;;19.80;9.38;;;;;;;;;;5024069;28;20897;-70
2021/10/28 19:06:22;;;;;;;19.48;9.95;;;;;;;;;;5020794;28;20164;-72
2021/10/28 19:08:51;;;;;;;19.15;9.15;;;;;;;;;;5027088;28;20052;-71
2021/10/28 19:11:20;;;;;;;19.38;9.48;;;;;;;;;;5027560;28;20049;-66
2021/10/28 19:13:49;;;;;;;19.95;9.38;;;;;;;;;;5026319;28;20445;-65
2021/10/28 19:16:19;;;;;;;19.58;9.18;;;;;;;;;;5028100;28;20053;-69
2021/10/28 19:18:48;;;;;;;17.20;8.32;;;;;;;;;;5025463;28;20586;-64
2021/10/28 19:21:16;;;;;;;16.20;8.80;;;;;;;;;;5030643;28;20042;-70
2021/10/28 19:23:46;;;;;;;17.25;8.65;;;;;;;;;;5022162;28;20060;-68
2021/10/28 19:26:15;;;;;;;17.02;8.85;;;;;;;;;;5027861;28;20064;-65
2021/10/28 19:28:44;;;;;;;16.85;8.63;;;;;;;;;;5028124;28;20273;-73
2021/10/28 19:31:15;;;;;;;17.35;8.90;;;;;;;;;;5027166;28;20041;-69
2021/10/28 19:33:46;;;;;;;14.73;8.07;;;;;;;;;;5024626;28;20056;-70
2021/10/28 19:36:25;;;;;;;18.52;9.23;;;;;;;;;;5027838;28;20053;-67
2021/10/28 19:39:14;;;;;;;16.77;8.50;;;;;;;;;;5020194;28;20099;-76
2021/10/28 19:47:21;;;;;;;17.63;8.68;;;;;;;;;;5028293;28;20042;-67
2021/10/28 19:49:50;;;;;;;19.63;8.68;;;;;;;;;;5027740;28;20037;-66
2021/10/28 19:52:19;;;;;;;17.38;8.85;;;;;;;;;;5023755;28;20045;-64
2021/10/28 19:54:50;;;;;;;14.25;7.72;;;;;;;;;;5026465;28;20053;-68
2021/10/28 19:57:20;;;;;;;19.05;7.78;;;;;;;;;;5027248;28;20417;-65
2021/10/28 19:59:53;;;;;;;16.00;8.68;;;;;;;;;;5026483;28;20464;-66
2021/10/28 20:02:28;;;;;;;14.88;8.05;;;;;;;;;;5026591;28;20050;-68
2021/10/28 20:05:20;;;;;;;;;;;;;;;;;;5022736;28;20049;-67
2021/10/28 20:08:08;;;;;;;11.88;7.22;;;;;;;;;;5016292;28;19979;-67
2021/10/28 20:21:38;;;;;;;14.07;7.47;;;;;;;;;;5024876;28;20153;-68
2021/10/28 20:24:08;;;;;;;12.15;7.45;;;;;;;;;;5019389;28;20437;-69
2021/10/28 20:26:39;;;;;;;14.10;7.38;;;;;;;;;;5018407;28;20058;-69
2021/10/28 20:29:08;;;;;;;13.25;6.82;;;;;;;;;;5023072;28;20053;-73
2021/10/28 20:31:37;;;;;;;14.35;9.00;;;;;;;;;;5018169;28;20103;-68
2021/10/28 20:34:14;;;;;;;15.73;7.28;;;;;;;;;;5015273;28;20172;-73
2021/10/28 20:39:29;;;;;;;14.40;7.70;;;;;;;;;;5020480;28;20563;-70
2021/10/28 20:41:59;;;;;;;13.15;6.72;;;;;;;;;;5021522;28;20519;-68
2021/10/28 20:44:28;;;;;;;13.48;6.85;;;;;;;;;;5017584;28;20165;-70
2021/10/28 20:46:56;;;;;;;11.88;7.20;;;;;;;;;;5015604;28;20390;-68
2021/10/28 20:49:24;;;;;;;12.48;6.35;;;;;;;;;;5024112;28;20163;-67
2021/10/28 20:51:53;;;;;;;11.05;6.07;;;;;;;;;;5022741;28;20155;-74
2021/10/28 20:54:22;;;;;;;11.50;7.05;;;;;;;;;;5023829;28;20141;-68
2021/10/28 20:56:55;;;;;;;11.68;6.68;;;;;;;;;;5025611;28;20132;-73
2021/10/28 20:59:25;;;;;;;12.98;6.70;;;;;;;;;;5024291;28;20131;-69
2021/10/28 21:01:53;;;;;;;11.50;6.78;;;;;;;;;;5023767;28;20045;-73
2021/10/28 21:04:22;;;;;;;11.32;6.22;;;;;;;;;;5019169;28;20045;-71
2021/10/28 21:06:51;;;;;;;10.30;6.13;;;;;;;;;;5026272;28;20091;-65
2021/10/28 21:09:19;;;;;;;10.55;6.28;;;;;;;;;;5025892;28;20128;-68
2021/10/28 21:11:48;;;;;;;9.43;5.78;;;;;;;;;;5025763;28;20057;-65
2021/10/28 21:14:18;;;;;;;13.30;6.43;;;;;;;;;;5024467;28;20053;-68
2021/10/28 21:16:48;;;;;;;9.93;5.43;;;;;;;;;;5025867;28;20041;-71
2021/10/28 21:19:16;;;;;;;12.63;6.72;;;;;;;;;;5025199;28;20099;-73
2021/10/28 21:21:49;;;;;;;9.77;5.05;;;;;;;;;;5018700;28;20085;-65
2021/10/28 21:24:17;;;;;;;11.93;6.78;;;;;;;;;;5024525;28;20041;-65
2021/10/28 21:26:46;;;;;;;10.65;6.15;;;;;;;;;;5025260;28;20088;-71
2021/10/28 21:29:14;;;;;;;9.07;5.60;;;;;;;;;;5017404;28;20809;-65
2021/10/28 21:31:43;;;;;;;11.43;6.25;;;;;;;;;;5025378;28;20560;-64
2021/10/28 21:34:12;;;;;;;11.48;6.45;;;;;;;;;;5024672;28;20053;-66
2021/10/28 21:36:41;;;;;;;12.80;6.88;;;;;;;;;;5017874;28;20872;-67
2021/10/28 21:39:09;;;;;;;12.98;6.82;;;;;;;;;;5025702;28;20055;-68
2021/10/28 21:41:37;;;;;;;12.10;7.03;;;;;;;;;;5026360;28;20049;-67
2021/10/28 21:44:06;;;;;;;11.63;6.70;;;;;;;;;;5029906;28;20053;-64
2021/10/28 21:46:35;;;;;;;14.63;6.82;;;;;;;;;;5027810;28;20151;-70
2021/10/28 21:49:04;;;;;;;14.10;6.53;;;;;;;;;;5030240;28;20057;-66
2021/10/28 21:51:35;;;;;;;13.05;6.78;;;;;;;;;;5029985;28;20459;-72
2021/10/28 21:54:06;;;;;;;15.30;7.10;;;;;;;;;;5023857;28;20092;-70
2021/10/28 21:56:38;;;;;;;12.90;6.78;;;;;;;;;;5029238;28;20045;-65
2021/10/28 22:02:17;;;;;;;14.35;8.05;;;;;;;;;;4984203;28;20059;-65
2021/10/28 22:04:59;;;;;;;11.73;6.30;;;;;;;;;;5027016;28;20544;-71
2021/10/28 22:24:25;;;;;;;12.90;7.13;;;;;;;;;;5028516;28;20059;-66
2021/10/28 22:26:56;;;;;;;14.38;6.60;;;;;;;;;;5026475;28;20045;-68
2021/10/28 22:29:24;;;;;;;11.45;6.63;;;;;;;;;;5028749;28;20092;-68
2021/10/28 22:31:52;;;;;;;12.55;7.00;;;;;;;;;;5029681;28;20627;-74
2021/10/28 22:34:21;;;;;;;11.68;6.13;;;;;;;;;;5029025;28;20045;-65
2021/10/28 22:36:51;;;;;;;12.10;6.95;;;;;;;;;;5030409;28;20128;-64
2021/10/28 22:39:24;;;;;;;14.70;6.43;;;;;;;;;;5031421;28;20481;-64
2021/10/28 22:41:52;;;;;;;12.88;6.60;;;;;;;;;;5031767;28;20045;-64
2021/10/28 22:44:20;;;;;;;11.85;6.70;;;;;;;;;;5031071;28;20133;-65
2021/10/28 22:46:49;;;;;;;12.93;6.88;;;;;;;;;;5032145;28;20065;-65
2021/10/28 22:49:17;;;;;;;14.65;7.20;;;;;;;;;;5032912;28;20120;-65
2021/10/28 22:51:45;;;;;;;13.98;6.68;;;;;;;;;;5045796;28;20151;-65
2021/10/28 22:54:14;;;;;;;13.10;7.10;;;;;;;;;;5031498;28;20742;-67
2021/10/28 22:56:43;;;;;;;12.75;7.18;;;;;;;;;;5031621;28;20382;-64
2021/10/28 22:59:12;;;;;;;12.52;6.53;;;;;;;;;;5032068;28;20052;-65